Time;durP1;ratioP1;P1;durP2;ratioP2;P2;SDS_P1;SDS_P2;PMS_P1;PMS_P2;Temp;Humidity;BMP_temperature;BMP_pressure;BME280_temperature;BME280_humidity;BME280_pressure;Samples;Min_cycle;Max_cycle;Signal;HPM_P1;HPM_P2
2021/10/09 00:01:40;;;;;;;17.10;8.03;;;;;;;-143.90;100.00;58478.06;5091414;28;20160;-70
2021/10/09 00:04:06;;;;;;;16.10;8.30;;;;;;;-143.90;100.00;58478.06;5090413;28;20180;-74
2021/10/09 00:06:32;;;;;;;14.57;8.10;;;;;;;-143.90;100.00;58478.06;5091160;28;20548;-76
2021/10/09 00:08:57;;;;;;;10.90;7.60;;;;;;;-143.90;100.00;58478.06;5103901;28;20417;-76
2021/10/09 00:11:34;;;;;;;13.57;7.13;;;;;;;-143.90;100.00;58478.06;5091463;28;20258;-75
2021/10/09 00:14:00;;;;;;;17.90;7.40;;;;;;;-143.90;100.00;58478.06;5091050;28;20558;-70
2021/10/09 00:16:26;;;;;;;16.03;7.03;;;;;;;-143.90;100.00;58478.06;5091028;28;20421;-71
2021/10/09 00:18:52;;;;;;;15.20;7.23;;;;;;;-143.90;100.00;58478.06;5073033;28;20437;-75
2021/10/09 00:21:17;;;;;;;17.87;7.10;;;;;;;-143.90;100.00;58478.06;5091363;28;20174;-72
2021/10/09 00:23:43;;;;;;;15.50;7.60;;;;;;;-143.90;100.00;58478.06;5091364;28;20221;-73
2021/10/09 00:26:08;;;;;;;11.00;7.23;;;;;;;-143.90;100.00;58478.06;5090741;28;20661;-77
2021/10/09 00:28:34;;;;;;;12.60;7.30;;;;;;;-143.90;100.00;58478.06;5090841;28;20556;-77
2021/10/09 00:30:59;;;;;;;12.40;8.40;;;;;;;-143.90;100.00;58478.06;5090830;28;20164;-75
2021/10/09 00:33:25;;;;;;;11.70;5.40;;;;;;;-143.90;100.00;58478.06;5090813;28;20194;-80
2021/10/09 00:35:50;;;;;;;12.80;8.10;;;;;;;-143.90;100.00;58478.06;5091392;28;20172;-72
2021/10/09 00:38:16;;;;;;;17.73;6.97;;;;;;;-143.90;100.00;58478.06;5072160;28;20227;-72
2021/10/09 00:40:41;;;;;;;11.57;5.30;;;;;;;-143.90;100.00;58478.06;5091256;28;20167;-72
2021/10/09 00:43:07;;;;;;;12.07;6.67;;;;;;;-143.90;100.00;58478.06;5090376;28;20167;-76
2021/10/09 00:45:32;;;;;;;12.10;5.30;;;;;;;-143.90;100.00;58478.06;5089431;28;20164;-75
2021/10/09 00:47:58;;;;;;;16.33;6.03;;;;;;;-143.90;100.00;58478.06;5090579;28;20206;-69
2021/10/09 00:50:23;;;;;;;13.70;6.90;;;;;;;-143.90;100.00;58478.06;5090946;28;20188;-79
2021/10/09 00:52:49;;;;;;;19.30;7.57;;;;;;;-143.90;100.00;58478.06;5090601;28;20178;-81
2021/10/09 00:55:15;;;;;;;11.27;7.30;;;;;;;-143.90;100.00;58478.06;5090631;28;20178;-80
2021/10/09 00:57:43;;;;;;;12.13;6.50;;;;;;;-143.90;100.00;58478.06;5090582;28;20579;-73
2021/10/09 01:00:09;;;;;;;15.80;7.17;;;;;;;-143.90;100.00;58478.06;5090552;28;20464;-79
2021/10/09 01:02:37;;;;;;;11.30;6.27;;;;;;;-143.90;100.00;58478.06;5090119;28;20424;-72
2021/10/09 01:05:04;;;;;;;14.37;7.53;;;;;;;-143.90;100.00;58478.06;5090266;28;20506;-77
2021/10/09 01:07:29;;;;;;;12.97;6.37;;;;;;;-143.90;100.00;58478.06;5089988;28;20815;-76
2021/10/09 01:09:55;;;;;;;13.50;6.20;;;;;;;-143.90;100.00;58478.06;5090717;28;21227;-76
2021/10/09 01:12:21;;;;;;;13.03;6.20;;;;;;;-143.90;100.00;58478.06;5090440;28;20210;-71
2021/10/09 01:14:46;;;;;;;15.67;8.87;;;;;;;-143.90;100.00;58478.06;5089994;28;20164;-77
2021/10/09 01:17:13;;;;;;;13.27;5.90;;;;;;;-143.90;100.00;58478.06;5071660;28;20461;-72
2021/10/09 01:19:40;;;;;;;13.83;6.77;;;;;;;-143.90;100.00;58478.06;5090526;28;20206;-72
2021/10/09 01:22:06;;;;;;;9.63;5.27;;;;;;;-143.90;100.00;58478.06;5089679;28;20440;-69
2021/10/09 01:24:32;;;;;;;15.13;6.57;;;;;;;-143.90;100.00;58478.06;5089349;28;20418;-80
2021/10/09 01:26:57;;;;;;;13.50;7.07;;;;;;;-143.90;100.00;58478.06;5090236;28;20779;-78
2021/10/09 01:29:23;;;;;;;17.93;6.80;;;;;;;-143.90;100.00;58478.06;5090428;28;20164;-75
2021/10/09 01:31:49;;;;;;;10.90;6.10;;;;;;;-143.90;100.00;58478.06;5071726;28;20611;-80
2021/10/09 01:34:20;;;;;;;16.13;8.10;;;;;;;-143.90;100.00;58478.06;5090086;28;20451;-81
2021/10/09 01:36:45;;;;;;;11.37;6.53;;;;;;;-143.90;100.00;58478.06;5072043;28;20237;-75
2021/10/09 01:39:14;;;;;;;16.10;8.17;;;;;;;-143.90;100.00;58478.06;5089499;28;20465;-79
2021/10/09 01:41:47;;;;;;;16.17;6.80;;;;;;;-143.90;100.00;58478.06;5090012;28;20188;-74
2021/10/09 01:44:14;;;;;;;11.07;5.60;;;;;;;-143.90;100.00;58478.06;5089821;28;20410;-76
2021/10/09 01:46:40;;;;;;;12.67;6.03;;;;;;;-143.90;100.00;58478.06;5089885;28;20406;-68
2021/10/09 01:49:06;;;;;;;13.87;5.70;;;;;;;-143.90;100.00;58478.06;5089870;28;20448;-78
2021/10/09 01:51:31;;;;;;;11.27;5.73;;;;;;;-143.90;100.00;58478.06;5090211;28;20544;-76
2021/10/09 01:53:58;;;;;;;14.10;4.43;;;;;;;-143.90;100.00;58478.06;5089697;28;20441;-73
2021/10/09 01:56:24;;;;;;;8.43;4.70;;;;;;;-143.90;100.00;58478.06;5089497;28;20168;-74
2021/10/09 01:58:50;;;;;;;14.77;5.80;;;;;;;-143.90;100.00;58478.06;5090078;28;20456;-76
2021/10/09 02:01:16;;;;;;;12.43;5.70;;;;;;;-143.90;100.00;58478.06;5089782;28;20168;-73
2021/10/09 02:03:41;;;;;;;10.93;5.53;;;;;;;-143.90;100.00;58478.06;5089762;28;20448;-73
2021/10/09 02:06:07;;;;;;;16.53;7.33;;;;;;;-143.90;100.00;58478.06;5090009;28;20164;-73
2021/10/09 02:08:32;;;;;;;10.30;5.83;;;;;;;-143.90;100.00;58478.06;5089901;28;20178;-72
2021/10/09 02:13:32;;;;;;;8.17;5.10;;;;;;;-143.90;100.00;58478.06;5089256;28;20176;-75
2021/10/09 02:24:21;;;;;;;12.00;4.80;;;;;;;-143.90;100.00;58478.06;5088864;28;20474;-80
2021/10/09 02:26:47;;;;;;;10.33;5.27;;;;;;;-143.90;100.00;58478.06;5089577;28;20414;-71
2021/10/09 02:29:12;;;;;;;7.10;3.93;;;;;;;-143.90;100.00;58478.06;5093053;28;20424;-75
2021/10/09 02:31:39;;;;;;;8.93;4.33;;;;;;;-143.90;100.00;58478.06;5092799;28;20418;-70
2021/10/09 02:34:04;;;;;;;8.27;4.60;;;;;;;-143.90;100.00;58478.06;5093032;28;20163;-72
2021/10/09 02:36:30;;;;;;;9.40;5.33;;;;;;;-143.90;100.00;58478.06;5093343;28;20425;-72
2021/10/09 02:38:55;;;;;;;10.97;4.93;;;;;;;-143.90;100.00;58478.06;5093179;28;20219;-75
2021/10/09 02:41:21;;;;;;;6.27;3.40;;;;;;;-143.90;100.00;58478.06;5093047;28;20164;-69
2021/10/09 02:43:46;;;;;;;7.63;4.43;;;;;;;-143.90;100.00;58478.06;5093289;28;20542;-71
2021/10/09 02:46:12;;;;;;;5.40;2.80;;;;;;;-143.90;100.00;58478.06;5092933;28;20705;-76
2021/10/09 02:48:38;;;;;;;11.00;4.33;;;;;;;-143.90;100.00;58478.06;5093118;28;20187;-75
2021/10/09 02:51:04;;;;;;;9.73;4.93;;;;;;;-143.90;100.00;58478.06;5092828;28;20194;-77
2021/10/09 02:53:30;;;;;;;8.17;4.07;;;;;;;-143.90;100.00;58478.06;5093074;28;20806;-69
2021/10/09 02:55:56;;;;;;;9.80;3.87;;;;;;;-143.90;100.00;58478.06;5092651;28;20171;-79
2021/10/09 02:58:22;;;;;;;8.83;4.60;;;;;;;-143.90;100.00;58478.06;5092970;28;20184;-78
2021/10/09 03:00:47;;;;;;;8.87;5.20;;;;;;;-143.90;100.00;58478.06;5092181;28;20429;-76
2021/10/09 03:03:13;;;;;;;6.40;3.20;;;;;;;-143.90;100.00;58478.06;5092864;28;20239;-68
2021/10/09 03:05:38;;;;;;;7.50;3.97;;;;;;;-143.90;100.00;58478.06;5092870;28;20167;-74
2021/10/09 03:08:04;;;;;;;8.87;3.63;;;;;;;-143.90;100.00;58478.06;5092512;28;20175;-75
2021/10/09 03:10:32;;;;;;;8.30;4.20;;;;;;;-143.90;100.00;58478.06;5092674;28;20168;-71
2021/10/09 03:12:57;;;;;;;9.63;4.07;;;;;;;-143.90;100.00;58478.06;5092440;28;20183;-71
2021/10/09 03:15:23;;;;;;;8.93;4.07;;;;;;;-143.90;100.00;58478.06;5092789;28;20438;-81
2021/10/09 03:17:49;;;;;;;9.03;4.30;;;;;;;-143.90;100.00;58478.06;5073765;28;20634;-78
2021/10/09 03:20:14;;;;;;;6.70;3.80;;;;;;;-143.90;100.00;58478.06;5095709;28;20224;-77
2021/10/09 03:22:40;;;;;;;11.40;4.87;;;;;;;-143.90;100.00;58478.06;5092324;28;20479;-79
2021/10/09 03:25:08;;;;;;;7.27;3.80;;;;;;;-143.90;100.00;58478.06;5092357;28;20168;-72
2021/10/09 03:27:33;;;;;;;11.47;4.57;;;;;;;-143.90;100.00;58478.06;5092212;28;20782;-77
2021/10/09 03:29:59;;;;;;;9.37;4.63;;;;;;;-143.90;100.00;58478.06;5091866;28;20453;-71
2021/10/09 03:32:25;;;;;;;8.17;5.10;;;;;;;-143.90;100.00;58478.06;5092052;28;20182;-77
2021/10/09 03:34:50;;;;;;;9.90;4.47;;;;;;;-143.90;100.00;58478.06;5092019;28;20172;-79
2021/10/09 03:37:16;;;;;;;11.37;5.00;;;;;;;-143.90;100.00;58478.06;5092106;28;20183;-76
2021/10/09 03:39:44;;;;;;;7.90;4.40;;;;;;;-143.90;100.00;58478.06;5091679;28;20242;-75
2021/10/09 03:42:27;;;;;;;8.90;4.60;;;;;;;-143.90;100.00;58478.06;5089394;28;20164;-71
2021/10/09 03:45:05;;;;;;;15.27;5.07;;;;;;;-143.90;100.00;58478.06;5092011;28;20406;-79
2021/10/09 03:52:45;;;;;;;19.30;5.20;;;;;;;-143.90;100.00;58478.06;5091635;28;20430;-74
2021/10/09 03:55:14;;;;;;;10.40;4.70;;;;;;;-143.90;100.00;58478.06;5091756;28;20487;-72
2021/10/09 03:57:40;;;;;;;8.60;4.70;;;;;;;-143.90;100.00;58478.06;5087297;28;20523;-69
2021/10/09 04:00:08;;;;;;;11.73;4.93;;;;;;;-143.90;100.00;58478.06;5088306;28;20429;-70
2021/10/09 04:02:33;;;;;;;16.40;4.60;;;;;;;-143.90;100.00;58478.06;5092042;28;20417;-70
2021/10/09 04:04:59;;;;;;;9.20;5.17;;;;;;;-143.90;100.00;58478.06;5092080;28;20784;-79
2021/10/09 04:07:24;;;;;;;11.67;6.20;;;;;;;-143.90;100.00;58478.06;5091826;28;20215;-71
2021/10/09 04:09:50;;;;;;;15.23;5.70;;;;;;;-143.90;100.00;58478.06;5091051;28;20630;-76
2021/10/09 04:12:16;;;;;;;8.20;4.47;;;;;;;-143.90;100.00;58478.06;5091268;28;20164;-76
2021/10/09 04:14:41;;;;;;;12.93;6.00;;;;;;;-143.90;100.00;58478.06;5091559;28;20168;-72
2021/10/09 04:17:07;;;;;;;9.50;5.30;;;;;;;-143.90;100.00;58478.06;5090983;28;20199;-76
2021/10/09 04:19:33;;;;;;;8.60;5.10;;;;;;;-143.90;100.00;58478.06;5091517;28;20180;-79
2021/10/09 04:21:58;;;;;;;10.07;6.00;;;;;;;-143.90;100.00;58478.06;5073156;28;20708;-71
2021/10/09 04:24:24;;;;;;;9.20;5.10;;;;;;;-143.90;100.00;58478.06;5091424;28;20402;-69
2021/10/09 04:26:49;;;;;;;11.70;5.20;;;;;;;-143.90;100.00;58478.06;5091258;28;20187;-68
2021/10/09 04:29:15;;;;;;;15.97;5.00;;;;;;;-143.90;100.00;58478.06;5091013;28;20320;-72
2021/10/09 04:31:40;;;;;;;7.80;4.70;;;;;;;-143.90;100.00;58478.06;5091006;28;20726;-68
2021/10/09 04:34:06;;;;;;;13.20;5.57;;;;;;;-143.90;100.00;58478.06;5091204;28;20184;-76
2021/10/09 04:36:31;;;;;;;8.40;4.47;;;;;;;-143.90;100.00;58478.06;5090569;28;20168;-74
2021/10/09 04:38:56;;;;;;;6.60;4.17;;;;;;;-143.90;100.00;58478.06;5090377;28;20222;-73
2021/10/09 04:41:22;;;;;;;8.90;5.00;;;;;;;-143.90;100.00;58478.06;5091078;28;20172;-73
2021/10/09 04:43:47;;;;;;;10.37;4.70;;;;;;;-143.90;100.00;58478.06;5090829;28;20168;-65
2021/10/09 04:46:13;;;;;;;19.03;5.30;;;;;;;-143.90;100.00;58478.06;5090775;28;20613;-80
2021/10/09 04:48:38;;;;;;;10.80;4.20;;;;;;;-143.90;100.00;58478.06;5090733;28;20206;-77
2021/10/09 04:51:04;;;;;;;13.37;5.47;;;;;;;-143.90;100.00;58478.06;5090360;28;20167;-78
2021/10/09 04:53:29;;;;;;;9.97;3.80;;;;;;;-143.90;100.00;58478.06;5090872;28;20167;-77
2021/10/09 04:55:55;;;;;;;9.13;5.13;;;;;;;-143.90;100.00;58478.06;5090480;28;20171;-79
2021/10/09 04:58:20;;;;;;;7.27;4.80;;;;;;;-143.90;100.00;58478.06;5090328;28;20187;-79
2021/10/09 05:00:48;;;;;;;11.60;6.00;;;;;;;-143.90;100.00;58478.06;5071791;28;20176;-67
2021/10/09 05:03:14;;;;;;;10.83;5.20;;;;;;;-143.90;100.00;58478.06;5081933;28;20168;-70
2021/10/09 05:05:39;;;;;;;9.80;4.93;;;;;;;-143.90;100.00;58478.06;5089821;28;20806;-75
2021/10/09 05:08:05;;;;;;;13.53;5.70;;;;;;;-143.90;100.00;58478.06;5090573;28;20167;-70
2021/10/09 05:10:30;;;;;;;11.07;4.30;;;;;;;-143.90;100.00;58478.06;5090550;28;20195;-77
2021/10/09 05:12:56;;;;;;;14.67;5.20;;;;;;;-143.90;100.00;58478.06;5090539;28;20281;-76
2021/10/09 05:15:21;;;;;;;14.70;6.23;;;;;;;-143.90;100.00;58478.06;5090461;28;20171;-76
2021/10/09 05:17:47;;;;;;;9.73;4.97;;;;;;;-143.90;100.00;58478.06;5089486;28;20197;-79
2021/10/09 05:20:12;;;;;;;10.03;5.13;;;;;;;-143.90;100.00;58478.06;5090778;28;20180;-73
2021/10/09 05:22:38;;;;;;;14.30;5.80;;;;;;;-143.90;100.00;58478.06;5090178;28;20190;-80
2021/10/09 05:25:05;;;;;;;10.97;5.83;;;;;;;-143.90;100.00;58478.06;5090002;28;20173;-75
2021/10/09 05:27:32;;;;;;;11.37;5.93;;;;;;;-143.90;100.00;58478.06;5090255;28;20167;-69
2021/10/09 05:30:03;;;;;;;11.97;6.07;;;;;;;-143.90;100.00;58478.06;5090089;28;20422;-73
2021/10/09 05:32:31;;;;;;;14.67;5.30;;;;;;;-143.90;100.00;58478.06;5089417;28;20426;-79
2021/10/09 05:34:57;;;;;;;17.27;8.03;;;;;;;-143.90;100.00;58478.06;5089725;28;20504;-75
2021/10/09 05:37:23;;;;;;;19.60;7.80;;;;;;;-143.90;100.00;58478.06;5089236;28;20453;-71
2021/10/09 05:39:48;;;;;;;11.70;5.60;;;;;;;-143.90;100.00;58478.06;5087824;28;20327;-72
2021/10/09 05:42:14;;;;;;;16.43;6.40;;;;;;;-143.90;100.00;58478.06;5071013;28;20178;-74
2021/10/09 05:44:39;;;;;;;16.03;7.07;;;;;;;-143.90;100.00;58478.06;5089932;28;20159;-74
2021/10/09 05:47:05;;;;;;;14.70;6.67;;;;;;;-143.90;100.00;58478.06;5089385;28;20176;-69
2021/10/09 05:49:31;;;;;;;15.80;6.30;;;;;;;-143.90;100.00;58478.06;5088832;28;20261;-73
2021/10/09 05:52:09;;;;;;;14.27;8.03;;;;;;;-143.90;100.00;58478.06;5089646;28;20246;-73
2021/10/09 05:55:14;;;;;;;12.17;7.40;;;;;;;-143.90;100.00;58478.06;5089272;28;20413;-75
2021/10/09 05:57:34;;;;;;;12.50;6.90;;;;;;;-143.90;100.00;58478.06;5074922;28;20461;-72
2021/10/09 06:32:33;;;;;;;16.83;8.40;;;;;;;-143.90;100.00;58478.06;5093004;28;20167;-77
2021/10/09 06:46:34;;;;;;;15.70;7.90;;;;;;;-143.90;100.00;58478.06;5092794;28;20555;-78
2021/10/09 06:59:55;;;;;;;15.27;7.93;;;;;;;-143.90;100.00;58478.06;5091825;28;20416;-72
2021/10/09 07:02:21;;;;;;;15.10;8.40;;;;;;;-143.90;100.00;58478.06;5091987;28;20414;-78
2021/10/09 07:04:47;;;;;;;21.30;9.00;;;;;;;-143.90;100.00;58478.06;5092290;28;20168;-78
2021/10/09 07:07:18;;;;;;;20.83;7.97;;;;;;;-143.90;100.00;58478.06;5084284;28;20545;-74
2021/10/09 07:09:44;;;;;;;16.77;10.53;;;;;;;-143.90;100.00;58478.06;5093351;28;20167;-73
2021/10/09 07:12:10;;;;;;;15.87;8.80;;;;;;;-143.90;100.00;58478.06;5074680;28;20413;-79
2021/10/09 07:14:35;;;;;;;22.43;9.30;;;;;;;-143.90;100.00;58478.06;5091721;28;20799;-80
2021/10/09 07:17:01;;;;;;;13.67;8.67;;;;;;;-143.90;100.00;58478.06;5092760;28;20167;-79
2021/10/09 07:19:26;;;;;;;17.53;8.73;;;;;;;-143.90;100.00;58478.06;5092732;28;20606;-78
2021/10/09 07:21:52;;;;;;;20.50;8.17;;;;;;;-143.90;100.00;58478.06;5090768;28;20176;-78
2021/10/09 07:24:17;;;;;;;15.70;8.10;;;;;;;-143.90;100.00;58478.06;5092090;28;20228;-70
2021/10/09 07:26:43;;;;;;;17.20;9.20;;;;;;;-143.90;100.00;58478.06;5092416;28;20164;-78
2021/10/09 07:29:08;;;;;;;25.83;8.53;;;;;;;-143.90;100.00;58478.06;5092312;28;20182;-81
2021/10/09 07:31:33;;;;;;;21.33;9.83;;;;;;;-143.90;100.00;58478.06;5092220;28;20167;-75
2021/10/09 07:33:59;;;;;;;19.70;9.90;;;;;;;-143.90;100.00;58478.06;5091806;28;20175;-73
2021/10/09 07:36:25;;;;;;;24.97;10.07;;;;;;;-143.90;100.00;58478.06;5092638;28;20206;-80
2021/10/09 07:38:50;;;;;;;25.13;9.30;;;;;;;-143.90;100.00;58478.06;5091893;28;20219;-81
2021/10/09 07:41:15;;;;;;;24.83;9.40;;;;;;;-143.90;100.00;58478.06;5091174;28;20233;-76
2021/10/09 07:43:41;;;;;;;23.10;8.80;;;;;;;-143.90;100.00;58478.06;5090375;28;20218;-77
2021/10/09 07:46:06;;;;;;;22.97;9.77;;;;;;;-143.90;100.00;58478.06;5092151;28;20168;-81
2021/10/09 07:48:32;;;;;;;20.00;8.80;;;;;;;-143.90;100.00;58478.06;5091448;28;20206;-78
2021/10/09 07:50:57;;;;;;;17.37;8.63;;;;;;;-143.90;100.00;58478.06;5091370;28;20684;-74
2021/10/09 07:53:24;;;;;;;21.37;9.00;;;;;;;-143.90;100.00;58478.06;5090899;28;20175;-79
2021/10/09 07:55:49;;;;;;;19.90;8.07;;;;;;;-143.90;100.00;58478.06;5091235;28;20170;-78
2021/10/09 07:58:15;;;;;;;15.27;8.60;;;;;;;-143.90;100.00;58478.06;5091689;28;20442;-79
2021/10/09 08:00:40;;;;;;;18.03;9.03;;;;;;;-143.90;100.00;58478.06;5091475;28;20167;-78
2021/10/09 08:03:06;;;;;;;19.97;8.80;;;;;;;-143.90;100.00;58478.06;5089870;28;20232;-76
2021/10/09 08:05:34;;;;;;;27.00;9.00;;;;;;;-143.90;100.00;58478.06;5091713;28;20170;-73
2021/10/09 08:08:00;;;;;;;14.17;7.90;;;;;;;-143.90;100.00;58478.06;5093667;28;20309;-74
2021/10/09 08:10:25;;;;;;;18.60;10.07;;;;;;;-143.90;100.00;58478.06;5091976;28;20559;-80
2021/10/09 08:12:51;;;;;;;23.43;10.37;;;;;;;-143.90;100.00;58478.06;5100317;28;20653;-73
2021/10/09 08:15:16;;;;;;;17.60;8.67;;;;;;;-143.90;100.00;58478.06;5090879;28;20198;-76
2021/10/09 08:17:42;;;;;;;16.70;8.13;;;;;;;-143.90;100.00;58478.06;5090187;28;20230;-76
2021/10/09 08:20:08;;;;;;;17.03;8.73;;;;;;;-143.90;100.00;58478.06;5091227;28;20248;-75
2021/10/09 08:22:38;;;;;;;22.80;12.10;;;;;;;-143.90;100.00;58478.06;5089546;28;20210;-76
2021/10/09 08:38:51;;;;;;;18.70;9.17;;;;;;;-143.90;100.00;58478.06;5032976;28;20927;-73
2021/10/09 08:41:18;;;;;;;16.60;9.00;;;;;;;-143.90;100.00;58478.06;5078821;28;20418;-72
2021/10/09 08:43:45;;;;;;;21.00;9.30;;;;;;;-143.90;100.00;58478.06;5089984;28;20784;-77
2021/10/09 08:46:11;;;;;;;17.83;9.60;;;;;;;-143.90;100.00;58478.06;5089616;28;20987;-74
2021/10/09 08:48:46;;;;;;;17.70;7.77;;;;;;;-143.90;100.00;58478.06;5090501;28;20474;-73
2021/10/09 08:51:12;;;;;;;21.93;9.23;;;;;;;-143.90;100.00;58478.06;5090161;28;20170;-73
2021/10/09 08:53:41;;;;;;;19.37;9.30;;;;;;;-143.90;100.00;58478.06;5090356;28;20421;-73
2021/10/09 08:56:08;;;;;;;16.97;8.67;;;;;;;-143.90;100.00;58478.06;5090014;28;20187;-72
2021/10/09 08:58:40;;;;;;;20.07;9.30;;;;;;;-143.90;100.00;58478.06;5090152;28;20445;-75
2021/10/09 09:01:20;;;;;;;18.13;8.80;;;;;;;-143.90;100.00;58478.06;5089679;28;20943;-72
2021/10/09 09:04:09;;;;;;;17.13;7.60;;;;;;;-143.90;100.00;58478.06;5071358;28;20395;-68
2021/10/09 09:07:04;;;;;;;19.87;8.70;;;;;;;-143.90;100.00;58478.06;5090190;28;20951;-77
2021/10/09 09:26:37;;;;;;;16.30;7.60;;;;;;;-143.90;100.00;58478.06;5090005;28;20783;-73
2021/10/09 09:40:13;;;;;;;14.73;9.17;;;;;;;-143.90;100.00;58478.06;5091838;28;20451;-75
2021/10/09 09:43:00;;;;;;;15.90;7.90;;;;;;;-143.90;100.00;58478.06;5089581;28;20496;-72
2021/10/09 09:45:27;;;;;;;13.57;7.37;;;;;;;-143.90;100.00;58478.06;5089561;28;20954;-77
2021/10/09 09:47:56;;;;;;;15.10;6.80;;;;;;;-143.90;100.00;58478.06;5089935;28;20422;-74
2021/10/09 09:50:22;;;;;;;13.10;7.27;;;;;;;-143.90;100.00;58478.06;5090043;28;20762;-74
2021/10/09 09:52:48;;;;;;;11.70;6.60;;;;;;;-143.90;100.00;58478.06;5090113;28;20414;-73
2021/10/09 09:55:15;;;;;;;15.50;6.63;;;;;;;-143.90;100.00;58478.06;5089522;28;20410;-74
2021/10/09 09:57:41;;;;;;;13.37;6.80;;;;;;;-143.90;100.00;58478.06;5090102;28;20989;-77
2021/10/09 10:00:12;;;;;;;20.10;5.90;;;;;;;-143.90;100.00;58478.06;5090315;28;20409;-77
2021/10/09 10:02:52;;;;;;;11.63;5.80;;;;;;;-143.90;100.00;58478.06;5076235;28;20417;-76
2021/10/09 10:05:25;;;;;;;9.80;5.47;;;;;;;-143.90;100.00;58478.06;5090062;28;20410;-76
2021/10/09 10:07:52;;;;;;;15.93;6.90;;;;;;;-143.90;100.00;58478.06;5090254;28;20385;-75
2021/10/09 10:10:18;;;;;;;18.20;7.23;;;;;;;-143.90;100.00;58478.06;5089505;28;20405;-74
2021/10/09 10:12:46;;;;;;;19.37;6.73;;;;;;;-143.90;100.00;58478.06;5089280;28;20414;-75
2021/10/09 10:15:13;;;;;;;14.83;6.37;;;;;;;-143.90;100.00;58478.06;5089651;28;20936;-76
2021/10/09 10:17:41;;;;;;;13.67;6.70;;;;;;;-143.90;100.00;58478.06;5089705;28;20449;-74
2021/10/09 10:20:09;;;;;;;17.57;7.37;;;;;;;-143.90;100.00;58478.06;5089603;28;20486;-76
2021/10/09 10:22:34;;;;;;;17.23;6.50;;;;;;;-143.90;100.00;58478.06;5089615;28;20409;-77
2021/10/09 10:25:00;;;;;;;10.03;5.70;;;;;;;-143.90;100.00;58478.06;5090000;28;20424;-75
2021/10/09 10:27:37;;;;;;;12.87;5.47;;;;;;;-143.90;100.00;58478.06;5089039;28;20190;-78
2021/10/09 10:30:14;;;;;;;16.70;6.17;;;;;;;-143.90;100.00;58478.06;5089694;28;20751;-76
2021/10/09 10:33:00;;;;;;;13.07;5.23;;;;;;;-143.90;100.00;58478.06;5089486;28;20425;-74
2021/10/09 10:35:28;;;;;;;14.97;7.47;;;;;;;-143.90;100.00;58478.06;5087797;28;20444;-74
2021/10/09 10:37:56;;;;;;;14.37;6.37;;;;;;;-143.90;100.00;58478.06;5089013;28;20449;-76
2021/10/09 10:40:43;;;;;;;11.13;4.67;;;;;;;-143.90;100.00;58478.06;5089374;28;20459;-76
2021/10/09 10:43:52;;;;;;;18.40;6.10;;;;;;;-143.90;100.00;58478.06;5089083;28;20460;-79
2021/10/09 10:46:25;;;;;;;13.37;5.50;;;;;;;-143.90;100.00;58478.06;5088858;28;20457;-78
2021/10/09 10:49:04;;;;;;;13.97;6.60;;;;;;;-143.90;100.00;58478.06;5091050;28;20954;-76
2021/10/09 10:51:58;;;;;;;14.63;5.40;;;;;;;-143.90;100.00;58478.06;5092846;28;20509;-75
2021/10/09 10:57:09;;;;;;;10.33;5.33;;;;;;;-143.90;100.00;58478.06;5092752;28;20418;-75
2021/10/09 10:59:57;;;;;;;16.27;5.83;;;;;;;-143.90;100.00;58478.06;5084245;28;20495;-75
2021/10/09 11:02:25;;;;;;;11.13;5.23;;;;;;;-143.90;100.00;58478.06;5090939;28;20498;-74
2021/10/09 11:04:52;;;;;;;13.80;5.70;;;;;;;-143.90;100.00;58478.06;5092410;28;20471;-78
2021/10/09 11:07:18;;;;;;;11.60;5.63;;;;;;;-143.90;100.00;58478.06;5089824;28;20417;-78
2021/10/09 11:09:46;;;;;;;15.70;5.73;;;;;;;-143.90;100.00;58478.06;5080816;28;20410;-75
2021/10/09 11:12:26;;;;;;;11.37;4.90;;;;;;;-143.90;100.00;58478.06;5092448;28;20409;-77
2021/10/09 11:15:05;;;;;;;10.27;4.77;;;;;;;-143.90;100.00;58478.06;5092102;28;20736;-79
2021/10/09 11:17:42;;;;;;;12.10;5.40;;;;;;;-143.90;100.00;58478.06;5091034;28;20981;-80
2021/10/09 11:20:12;;;;;;;10.53;4.20;;;;;;;-143.90;100.00;58478.06;5091563;28;20433;-76
2021/10/09 11:22:47;;;;;;;13.23;7.13;;;;;;;-143.90;100.00;58478.06;5092399;28;20748;-76
2021/10/09 11:25:23;;;;;;;12.33;5.13;;;;;;;-143.90;100.00;58478.06;5091657;28;20425;-74
2021/10/09 11:27:49;;;;;;;9.00;4.40;;;;;;;-143.90;100.00;58478.06;5091780;28;20547;-75
2021/10/09 11:30:15;;;;;;;8.47;4.50;;;;;;;-143.90;100.00;58478.06;5073809;28;20517;-75
2021/10/09 11:32:42;;;;;;;9.77;4.73;;;;;;;-143.90;100.00;58478.06;5091582;28;20172;-76
2021/10/09 11:35:09;;;;;;;16.10;6.30;;;;;;;-143.90;100.00;58478.06;5072912;28;20521;-73
2021/10/09 11:37:46;;;;;;;13.70;5.27;;;;;;;-143.90;100.00;58478.06;5073582;28;20457;-72
2021/10/09 11:40:12;;;;;;;10.57;5.53;;;;;;;-143.90;100.00;58478.06;5090942;28;20902;-76
2021/10/09 11:43:01;;;;;;;16.93;6.83;;;;;;;-143.90;100.00;58478.06;5091717;28;20402;-76
2021/10/09 11:45:39;;;;;;;17.07;6.30;;;;;;;-143.90;100.00;58478.06;5091146;28;20255;-73
2021/10/09 11:54:00;;;;;;;12.93;6.60;;;;;;;-143.90;100.00;58478.06;5091212;28;20428;-76
2021/10/09 11:56:26;;;;;;;12.70;6.97;;;;;;;-143.90;100.00;58478.06;5091329;28;20744;-76
2021/10/09 11:59:02;;;;;;;16.80;6.93;;;;;;;-143.90;100.00;58478.06;5090995;28;20958;-72
2021/10/09 12:01:38;;;;;;;19.30;6.40;;;;;;;-143.90;100.00;58478.06;5090463;28;20561;-75
2021/10/09 12:04:21;;;;;;;14.20;6.70;;;;;;;-143.90;100.00;58478.06;5091010;28;20429;-72
2021/10/09 12:06:57;;;;;;;21.63;8.20;;;;;;;-143.90;100.00;58478.06;5091365;28;20887;-73
2021/10/09 12:09:34;;;;;;;14.10;7.33;;;;;;;-143.90;100.00;58478.06;5090901;28;20409;-75
2021/10/09 12:12:14;;;;;;;15.07;7.73;;;;;;;-143.90;100.00;58478.06;5091466;28;20504;-73
2021/10/09 12:14:40;;;;;;;20.23;8.23;;;;;;;-143.90;100.00;58478.06;5091239;28;20418;-72
2021/10/09 12:17:06;;;;;;;14.23;7.87;;;;;;;-143.90;100.00;58478.06;5089783;28;20484;-74
2021/10/09 12:19:32;;;;;;;18.10;9.00;;;;;;;-143.90;100.00;58478.06;5091212;28;20183;-73
2021/10/09 12:22:04;;;;;;;15.33;8.97;;;;;;;-143.90;100.00;58478.06;5090827;28;20651;-69
2021/10/09 12:24:32;;;;;;;27.70;8.67;;;;;;;-143.90;100.00;58478.06;5090833;28;20491;-74
2021/10/09 12:27:12;;;;;;;20.30;8.27;;;;;;;-143.90;100.00;58478.06;5090571;28;20452;-78
2021/10/09 12:30:12;;;;;;;14.70;7.47;;;;;;;-143.90;100.00;58478.06;5090711;28;20790;-72
2021/10/09 12:32:47;;;;;;;21.83;10.40;;;;;;;-143.90;100.00;58478.06;5081765;28;20416;-78
2021/10/09 12:35:26;;;;;;;15.53;7.50;;;;;;;-143.90;100.00;58478.06;5090552;28;20428;-75
2021/10/09 12:38:01;;;;;;;20.00;10.63;;;;;;;-143.90;100.00;58478.06;5090744;28;20536;-76
2021/10/09 12:40:35;;;;;;;21.73;9.10;;;;;;;-143.90;100.00;58478.06;5071776;28;20445;-75
2021/10/09 12:43:01;;;;;;;31.17;9.50;;;;;;;-143.90;100.00;58478.06;5090750;28;20400;-74
2021/10/09 12:45:29;;;;;;;23.97;9.00;;;;;;;-143.90;100.00;58478.06;5090330;28;20414;-73
2021/10/09 12:47:57;;;;;;;23.73;9.70;;;;;;;-143.90;100.00;58478.06;5090736;28;20575;-76
2021/10/09 12:50:24;;;;;;;16.73;9.67;;;;;;;-143.90;100.00;58478.06;5090539;28;20532;-72
2021/10/09 12:52:49;;;;;;;17.97;8.90;;;;;;;-143.90;100.00;58478.06;5090207;28;20409;-70
2021/10/09 12:55:15;;;;;;;26.17;8.63;;;;;;;-143.90;100.00;58478.06;5090574;28;20402;-76
2021/10/09 12:57:51;;;;;;;21.97;9.13;;;;;;;-143.90;100.00;58478.06;5090433;28;20206;-74
2021/10/09 13:00:17;;;;;;;24.53;9.80;;;;;;;-143.90;100.00;58478.06;5089803;28;20172;-77
2021/10/09 13:02:43;;;;;;;16.67;8.60;;;;;;;-143.90;100.00;58478.06;5089999;28;20422;-75
2021/10/09 13:05:09;;;;;;;23.43;9.33;;;;;;;-143.90;100.00;58478.06;5089438;28;20425;-73
2021/10/09 13:07:34;;;;;;;18.67;8.07;;;;;;;-143.90;100.00;58478.06;5089046;28;20192;-75
2021/10/09 13:09:59;;;;;;;19.67;8.80;;;;;;;-143.90;100.00;58478.06;5089802;28;20660;-76